createdAt,value
2022-11-14T00:01:00.136Z,98638.31
2022-11-14T00:03:26.712Z,98631.41
2022-11-14T00:05:53.268Z,98640.03
2022-11-14T00:08:22.413Z,98640.78
2022-11-14T00:10:50.591Z,98631.19
2022-11-14T00:13:18.785Z,98631.09
2022-11-14T00:15:50.392Z,98630.09
2022-11-14T00:18:17.876Z,98626.50
2022-11-14T00:20:47.188Z,98627.16
2022-11-14T00:23:13.831Z,98619.13
2022-11-14T00:25:40.449Z,98612.94
2022-11-14T00:28:07.009Z,98607.75
2022-11-14T00:30:33.555Z,98598.25
2022-11-14T00:33:00.077Z,98595.50
2022-11-14T00:35:26.723Z,98585.78
2022-11-14T00:37:53.263Z,98583.94
2022-11-14T00:40:22.242Z,98576.13
2022-11-14T00:42:48.889Z,98570.91
2022-11-14T00:45:15.479Z,98570.00
2022-11-14T00:47:42.027Z,98569.13
2022-11-14T00:50:09.773Z,98567.16
2022-11-14T00:52:37.147Z,98566.22
2022-11-14T00:55:04.216Z,98560.84
2022-11-14T00:57:30.739Z,98556.34
2022-11-14T00:59:57.345Z,98563.13
2022-11-14T01:02:23.891Z,98553.47
2022-11-14T01:04:50.520Z,98558.56
2022-11-14T01:07:17.148Z,98552.31
2022-11-14T01:09:43.694Z,98561.78
2022-11-14T01:12:10.258Z,98554.66
2022-11-14T01:14:36.822Z,98558.03
2022-11-14T01:17:03.861Z,98552.72
2022-11-14T01:19:30.544Z,98550.81
2022-11-14T01:21:59.617Z,98548.88
2022-11-14T01:24:31.507Z,98548.66
2022-11-14T01:26:58.199Z,98538.97
2022-11-14T01:29:24.741Z,98546.94
2022-11-14T01:31:51.331Z,98539.16
2022-11-14T01:34:17.914Z,98535.72
2022-11-14T01:36:44.584Z,98528.72
2022-11-14T01:39:11.193Z,98528.69
2022-11-14T01:41:37.863Z,98525.19
2022-11-14T01:44:11.716Z,98520.63
2022-11-14T01:46:42.054Z,98518.78
2022-11-14T01:49:14.606Z,98514.63
2022-11-14T01:51:51.234Z,98517.19
2022-11-14T01:54:26.567Z,98514.63
2022-11-14T01:56:58.128Z,98517.97
2022-11-14T01:59:46.884Z,98510.84
2022-11-14T02:02:19.800Z,98515.09
2022-11-14T02:04:51.613Z,98510.53
2022-11-14T02:07:19.476Z,98513.88
2022-11-14T02:09:47.761Z,98503.38
2022-11-14T02:12:17.449Z,98501.56
2022-11-14T02:14:47.063Z,98504.25
2022-11-14T02:17:28.855Z,98497.41
2022-11-14T02:20:19.219Z,98497.66
2022-11-14T02:22:45.805Z,98492.31
2022-11-14T02:25:16.569Z,98482.75
2022-11-14T02:27:43.699Z,98474.94
2022-11-14T02:30:16.292Z,98472.09
2022-11-14T02:33:10.519Z,98468.56
2022-11-14T02:35:29.567Z,98471.19
2022-11-14T02:37:56.143Z,98464.19
2022-11-14T02:40:22.699Z,98462.28
2022-11-14T02:42:49.251Z,98456.06
2022-11-14T02:45:15.830Z,98463.84
2022-11-14T02:47:42.496Z,98458.50
2022-11-14T02:50:09.793Z,98460.06
2022-11-14T02:52:36.349Z,98448.03
2022-11-14T02:55:04.060Z,98451.41
2022-11-14T02:57:30.610Z,98451.38
2022-11-14T02:59:57.182Z,98454.69
2022-11-14T03:02:23.749Z,98447.78
2022-11-14T03:04:50.318Z,98443.56
2022-11-14T03:07:16.998Z,98432.28
2022-11-14T03:09:43.619Z,98437.47
2022-11-14T03:12:10.605Z,98433.31
2022-11-14T03:14:37.126Z,98433.31
2022-11-14T03:17:03.739Z,98427.31
2022-11-14T03:19:30.298Z,98426.59
2022-11-14T03:21:56.834Z,98429.94
2022-11-14T03:24:23.367Z,98413.56
2022-11-14T03:26:49.950Z,98419.50
2022-11-14T03:29:16.570Z,98412.66
2022-11-14T03:31:43.289Z,98412.47
2022-11-14T03:34:10.962Z,98414.41
2022-11-14T03:36:38.392Z,98408.34
2022-11-14T03:39:05.893Z,98404.72
2022-11-14T03:41:32.997Z,98406.34
2022-11-14T03:43:59.556Z,98407.09
2022-11-14T03:46:26.198Z,98397.53
2022-11-14T03:48:52.791Z,98396.66
2022-11-14T03:51:19.432Z,98394.06
2022-11-14T03:53:45.983Z,98397.31
2022-11-14T03:56:12.591Z,98392.75
2022-11-14T03:58:39.099Z,98385.84
2022-11-14T04:01:05.696Z,98392.75
2022-11-14T04:03:32.361Z,98386.63
2022-11-14T04:05:58.897Z,98383.22
2022-11-14T04:08:25.414Z,98378.03
2022-11-14T04:10:51.989Z,98376.31
2022-11-14T04:13:18.556Z,98370.16
2022-11-14T04:15:45.154Z,98376.97
2022-11-14T04:18:11.938Z,98376.91
2022-11-14T04:20:38.576Z,98376.66
2022-11-14T04:23:05.068Z,98369.69
2022-11-14T04:25:31.770Z,98369.56
2022-11-14T04:27:58.270Z,98365.88
2022-11-14T04:30:24.853Z,98359.91
2022-11-14T04:32:51.501Z,98354.78
2022-11-14T04:35:18.068Z,98346.09
2022-11-14T04:37:44.671Z,98349.91
2022-11-14T04:40:11.872Z,98351.59
2022-11-14T04:42:38.424Z,98347.41
2022-11-14T04:45:05.649Z,98351.47
2022-11-14T04:47:32.332Z,98348.88
2022-11-14T04:49:58.903Z,98350.78
2022-11-14T04:52:25.424Z,98357.69
2022-11-14T04:54:52.027Z,98354.41
2022-11-14T04:57:18.607Z,98343.28
2022-11-14T04:59:45.284Z,98346.88
2022-11-14T05:02:11.957Z,98348.66
2022-11-14T05:04:38.537Z,98350.34
2022-11-14T05:07:05.215Z,98350.41
2022-11-14T05:09:31.848Z,98347.94
2022-11-14T05:11:58.398Z,98342.72
2022-11-14T05:14:24.923Z,98347.06
2022-11-14T05:16:51.538Z,98346.09
2022-11-14T05:19:18.127Z,98333.41
2022-11-14T05:21:44.655Z,98336.91
2022-11-14T05:24:11.228Z,98332.63
2022-11-14T05:26:38.052Z,98326.56
2022-11-14T05:29:04.631Z,98325.84
2022-11-14T05:31:31.397Z,98315.50
2022-11-14T05:33:57.993Z,98315.44
2022-11-14T05:36:24.587Z,98312.84
2022-11-14T05:38:51.377Z,98300.44
2022-11-14T05:41:22.115Z,98303.19
2022-11-14T05:43:48.684Z,98307.63
2022-11-14T05:46:16.474Z,98318.72
2022-11-14T05:48:43.324Z,98317.03
2022-11-14T05:51:12.397Z,98319.50
2022-11-14T05:53:39.740Z,98328.13
2022-11-14T05:56:12.518Z,98314.06
2022-11-14T05:58:40.863Z,98316.56
2022-11-14T06:01:10.724Z,98321.66
2022-11-14T06:03:43.077Z,98319.84
2022-11-14T06:06:12.543Z,98311.81
2022-11-14T06:08:39.415Z,98309.13
2022-11-14T06:11:09.447Z,98304.63
2022-11-14T06:13:36.528Z,98300.19
2022-11-14T06:16:05.782Z,98305.97
2022-11-14T06:18:33.436Z,98298.88
2022-11-14T06:21:10.250Z,98300.63
2022-11-14T06:23:37.304Z,98288.22
2022-11-14T06:26:07.027Z,98276.09
2022-11-14T06:28:33.999Z,98284.69
2022-11-14T06:31:02.388Z,98276.81
2022-11-14T06:33:33.089Z,98274.91
2022-11-14T06:36:05.835Z,98282.59
2022-11-14T06:38:34.289Z,98283.34
2022-11-14T06:41:09.036Z,98291.75
2022-11-14T06:43:40.586Z,98291.66
2022-11-14T06:46:09.122Z,98294.41
2022-11-14T06:48:36.015Z,98294.34
2022-11-14T06:51:04.145Z,98299.41
2022-11-14T06:53:32.797Z,98289.75
2022-11-14T06:56:08.239Z,98295.69
2022-11-14T06:58:40.531Z,98297.38
2022-11-14T07:01:15.975Z,98304.28
2022-11-14T07:03:44.005Z,98309.44
2022-11-14T07:06:13.668Z,98305.06
2022-11-14T07:08:40.669Z,98307.09
2022-11-14T07:11:13.158Z,98310.41
2022-11-14T07:13:39.677Z,98307.03
2022-11-14T07:16:06.446Z,98314.94
2022-11-14T07:18:34.051Z,98318.31
2022-11-14T07:21:04.676Z,98319.03
2022-11-14T07:23:33.189Z,98326.84
2022-11-14T07:26:08.049Z,98325.88
2022-11-14T07:28:36.949Z,98319.78
2022-11-14T07:31:04.740Z,98310.22
2022-11-14T07:33:32.406Z,98314.38
2022-11-14T07:35:59.450Z,98308.94
2022-11-14T07:38:26.337Z,98306.22
2022-11-14T07:40:59.827Z,98308.84
2022-11-14T07:43:28.042Z,98307.72
2022-11-14T07:45:58.909Z,98312.38
2022-11-14T07:48:25.465Z,98313.22
2022-11-14T07:50:52.035Z,98308.94
2022-11-14T07:53:19.406Z,98287.97
2022-11-14T07:55:45.925Z,98294.75
2022-11-14T07:58:12.585Z,98291.22
2022-11-14T08:00:39.181Z,98286.94
2022-11-14T08:03:07.888Z,98288.38
2022-11-14T08:05:35.017Z,98291.13
2022-11-14T08:08:01.639Z,98285.72
2022-11-14T08:10:33.279Z,98283.81
2022-11-14T08:13:31.767Z,98289.03
2022-11-14T08:15:49.684Z,98278.59
2022-11-14T08:18:16.359Z,98284.63
2022-11-14T08:20:44.010Z,98283.03
2022-11-14T08:23:11.421Z,98278.50
2022-11-14T08:25:38.009Z,98277.56
2022-11-14T08:28:04.663Z,98283.50
2022-11-14T08:30:31.584Z,98291.31
2022-11-14T08:33:03.598Z,98288.72
2022-11-14T08:35:30.230Z,98300.84
2022-11-14T08:37:56.943Z,98302.63
2022-11-14T08:40:23.700Z,98296.38
2022-11-14T08:42:50.250Z,98295.72
2022-11-14T08:45:16.907Z,98294.78
2022-11-14T08:47:43.629Z,98293.88
2022-11-14T08:50:10.210Z,98298.38
2022-11-14T08:52:36.718Z,98301.75
2022-11-14T08:55:03.490Z,98292.19
2022-11-14T08:57:30.034Z,98292.09
2022-11-14T08:59:56.763Z,98284.41
2022-11-14T09:02:23.353Z,98286.16
2022-11-14T09:04:49.960Z,98292.25
2022-11-14T09:07:16.703Z,98297.53
2022-11-14T09:09:43.536Z,98293.16
2022-11-14T09:12:10.081Z,98293.00
2022-11-14T09:14:36.627Z,98301.56
2022-11-14T09:17:05.946Z,98300.56
2022-11-14T09:19:32.787Z,98299.50
2022-11-14T09:21:59.348Z,98301.19
2022-11-14T09:24:25.907Z,98305.69
2022-11-14T09:26:56.566Z,98304.78
2022-11-14T09:29:23.495Z,98304.00
2022-11-14T09:31:51.907Z,98306.63
2022-11-14T09:34:18.602Z,98300.16
2022-11-14T09:36:45.131Z,98302.56
2022-11-14T09:39:11.669Z,98299.66
2022-11-14T09:41:56.533Z,98297.81
2022-11-14T09:45:04.131Z,98291.50
2022-11-14T09:47:39.925Z,98295.75
2022-11-14T09:50:28.062Z,98291.19
2022-11-14T09:53:03.199Z,98293.59
2022-11-14T09:55:36.492Z,98290.91
2022-11-14T09:58:05.238Z,98298.66
2022-11-14T10:01:03.836Z,98291.69
2022-11-14T10:04:09.367Z,98301.75
2022-11-14T10:06:51.706Z,98302.50
2022-11-14T10:09:38.843Z,98299.72
2022-11-14T10:12:15.560Z,98291.56
2022-11-14T10:15:00.755Z,98286.06
2022-11-14T10:18:08.876Z,98288.56
2022-11-14T10:20:38.009Z,98279.03
2022-11-14T10:23:35.229Z,98274.34
2022-11-14T10:26:20.193Z,98278.56
2022-11-14T10:29:08.239Z,98278.41
2022-11-14T10:31:58.032Z,98279.41
2022-11-14T10:34:26.558Z,98287.25
2022-11-14T10:37:17.176Z,98280.25
2022-11-14T10:39:51.069Z,98279.94
2022-11-14T10:42:32.751Z,98280.56
2022-11-14T10:45:07.539Z,98275.16
2022-11-14T10:47:40.915Z,98276.75
2022-11-14T10:50:32.559Z,98268.09
2022-11-14T10:53:05.210Z,98266.06
2022-11-14T10:58:18.321Z,98258.16
2022-11-14T11:00:44.933Z,98254.69
2022-11-14T11:03:11.561Z,98251.78
2022-11-14T11:05:54.884Z,98255.44
2022-11-14T11:08:43.715Z,98249.53
2022-11-14T11:11:29.894Z,98253.91
2022-11-14T11:13:59.833Z,98252.06
2022-11-14T11:16:28.750Z,98247.44
2022-11-14T11:19:15.166Z,98253.50
2022-11-14T11:21:51.026Z,98247.38
2022-11-14T11:24:36.341Z,98235.06
2022-11-14T11:27:32.538Z,98238.38
2022-11-14T11:30:03.575Z,98238.13
2022-11-14T11:32:30.257Z,98248.41
2022-11-14T11:34:58.754Z,98241.31
2022-11-14T11:37:30.386Z,98246.50
2022-11-14T11:40:02.158Z,98249.50
2022-11-14T11:43:23.899Z,98249.94
2022-11-14T11:45:22.532Z,98252.97
2022-11-14T11:47:58.604Z,98251.81
2022-11-14T11:50:26.061Z,98250.63
2022-11-14T11:53:12.829Z,98252.38
2022-11-14T11:55:49.561Z,98253.88
2022-11-14T11:58:25.319Z,98252.69
2022-11-14T12:00:55.501Z,98256.84
2022-11-14T12:03:24.818Z,98254.56
2022-11-14T12:06:03.200Z,98256.66
2022-11-14T12:09:08.755Z,98253.84
2022-11-14T12:11:39.364Z,98254.44
2022-11-14T12:14:24.676Z,98252.66
2022-11-14T12:17:09.701Z,98254.47
2022-11-14T12:19:39.358Z,98253.13
2022-11-14T12:22:08.769Z,98256.75
2022-11-14T12:24:53.672Z,98260.84
2022-11-14T12:27:23.097Z,98261.31
2022-11-14T12:30:11.643Z,98250.69
2022-11-14T12:32:50.518Z,98250.59
2022-11-14T12:35:31.470Z,98253.22
2022-11-14T12:38:01.725Z,98257.34
2022-11-14T12:40:59.691Z,98257.94
2022-11-14T12:43:36.787Z,98258.75
2022-11-14T12:46:06.502Z,98261.31
2022-11-14T12:48:35.400Z,98248.03
2022-11-14T12:51:04.195Z,98249.47
2022-11-14T12:53:37.093Z,98243.22
2022-11-14T12:56:31.789Z,98248.84
2022-11-14T12:59:17.107Z,98247.09
2022-11-14T13:01:52.748Z,98252.56
2022-11-14T13:04:42.547Z,98259.09
2022-11-14T13:07:34.288Z,98262.31
2022-11-14T13:10:13.707Z,98261.75
2022-11-14T13:13:01.175Z,98256.97
2022-11-14T13:15:49.416Z,98241.47
2022-11-14T13:18:37.695Z,98252.41
2022-11-14T13:21:42.294Z,98237.84
2022-11-14T13:24:12.125Z,98243.28
2022-11-14T13:26:41.495Z,98243.03
2022-11-14T13:29:08.360Z,98240.47
2022-11-14T13:31:50.541Z,98236.72
2022-11-14T13:34:35.238Z,98244.84
2022-11-14T13:37:29.740Z,98244.09
2022-11-14T13:40:20.932Z,98241.06
2022-11-14T13:43:05.430Z,98233.22
2022-11-14T13:46:01.672Z,98238.38
2022-11-14T13:48:28.172Z,98242.94
2022-11-14T13:51:21.914Z,98236.59
2022-11-14T13:53:51.353Z,98232.13
2022-11-14T13:56:43.130Z,98231.75
2022-11-14T13:59:47.116Z,98226.44
2022-11-14T14:02:44.935Z,98230.16
2022-11-14T14:05:21.011Z,98238.00
2022-11-14T14:07:58.314Z,98230.59
2022-11-14T14:10:57.273Z,98225.72
2022-11-14T14:13:30.118Z,98233.25
2022-11-14T14:15:56.890Z,98226.16
2022-11-14T14:18:23.392Z,98232.91
2022-11-14T14:21:06.132Z,98226.16
2022-11-14T14:24:02.512Z,98228.97
2022-11-14T14:26:55.643Z,98235.03
2022-11-14T14:29:36.225Z,98237.56
2022-11-14T14:32:14.032Z,98237.75
2022-11-14T14:34:41.925Z,98229.31
2022-11-14T14:37:19.813Z,98236.25
2022-11-14T14:40:00.904Z,98233.63
2022-11-14T14:42:36.476Z,98232.50
2022-11-14T14:45:04.228Z,98238.69
2022-11-14T14:47:40.432Z,98242.13
2022-11-14T14:50:20.018Z,98243.34
2022-11-14T14:52:46.913Z,98239.78
2022-11-14T14:55:30.139Z,98246.59
2022-11-14T14:57:56.739Z,98242.03
2022-11-14T15:00:26.308Z,98242.88
2022-11-14T15:02:55.965Z,98249.81
2022-11-14T15:05:27.593Z,98250.09
2022-11-14T15:07:59.260Z,98249.03
2022-11-14T15:10:29.749Z,98252.69
2022-11-14T15:12:59.825Z,98251.94
2022-11-14T15:15:27.799Z,98249.31
2022-11-14T15:17:56.299Z,98254.28
2022-11-14T15:20:25.370Z,98256.81
2022-11-14T15:23:11.027Z,98252.59
2022-11-14T15:25:37.895Z,98258.59
2022-11-14T15:28:13.148Z,98252.34
2022-11-14T15:30:39.791Z,98258.50
2022-11-14T15:33:26.035Z,98248.91
2022-11-14T15:36:06.548Z,98257.19
2022-11-14T15:38:48.445Z,98256.16
2022-11-14T15:41:23.256Z,98256.31
2022-11-14T15:43:53.207Z,98258.00
2022-11-14T15:46:35.719Z,98260.56
2022-11-14T15:49:09.564Z,98264.19
2022-11-14T15:51:45.845Z,98262.41
2022-11-14T15:54:41.286Z,98260.56
2022-11-14T15:57:16.770Z,98261.69
2022-11-14T15:59:43.610Z,98265.94
2022-11-14T16:02:16.820Z,98257.22
2022-11-14T16:04:47.481Z,98267.63
2022-11-14T16:07:15.558Z,98258.75
2022-11-14T16:09:42.357Z,98259.19
2022-11-14T16:12:08.964Z,98261.19
2022-11-14T16:14:35.647Z,98265.63
2022-11-14T16:17:02.481Z,98266.53
2022-11-14T16:19:29.321Z,98266.53
2022-11-14T16:22:02.581Z,98265.63
2022-11-14T16:24:33.983Z,98262.81
2022-11-14T16:27:00.946Z,98267.38
2022-11-14T16:29:27.666Z,98263.81
2022-11-14T16:31:55.388Z,98266.38
2022-11-14T16:34:27.790Z,98269.25
2022-11-14T16:36:59.329Z,98270.09
2022-11-14T16:39:26.110Z,98271.84
2022-11-14T16:41:53.096Z,98275.16
2022-11-14T16:44:19.702Z,98278.78
2022-11-14T16:46:49.525Z,98277.94
2022-11-14T16:49:17.470Z,98285.88
2022-11-14T16:51:49.312Z,98286.56
2022-11-14T16:54:20.240Z,98284.88
2022-11-14T16:56:47.573Z,98287.31
2022-11-14T16:59:14.404Z,98283.25
2022-11-14T17:01:41.043Z,98276.44
2022-11-14T17:04:07.853Z,98280.00
2022-11-14T17:06:34.394Z,98281.00
2022-11-14T17:09:01.173Z,98278.56
2022-11-14T17:11:28.696Z,98289.16
2022-11-14T17:13:56.610Z,98273.94
2022-11-14T17:16:24.168Z,98277.28
2022-11-14T17:18:54.767Z,98274.75
2022-11-14T17:21:22.183Z,98287.16
2022-11-14T17:23:54.621Z,98283.72
2022-11-14T17:26:21.726Z,98280.16
2022-11-14T17:28:48.229Z,98284.53
2022-11-14T17:31:15.954Z,98271.19
2022-11-14T17:33:42.496Z,98287.91
2022-11-14T17:36:10.704Z,98287.31
2022-11-14T17:38:38.511Z,98287.44
2022-11-14T17:41:08.405Z,98281.41
2022-11-14T17:43:39.680Z,98288.44
2022-11-14T17:46:14.134Z,98285.88
2022-11-14T17:48:42.255Z,98282.63
2022-11-14T17:51:12.429Z,98284.47
2022-11-14T17:53:39.556Z,98278.72
2022-11-14T17:56:07.854Z,98293.41
2022-11-14T17:58:34.977Z,98286.47
2022-11-14T18:01:01.693Z,98291.03
2022-11-14T18:03:28.481Z,98300.59
2022-11-14T18:06:05.484Z,98295.25
2022-11-14T18:08:32.344Z,98293.50
2022-11-14T18:11:04.125Z,98291.81
2022-11-14T18:13:30.834Z,98292.81
2022-11-14T18:16:15.208Z,98284.91
2022-11-14T18:18:42.249Z,98293.41
2022-11-14T18:21:12.364Z,98295.84
2022-11-14T18:23:39.018Z,98299.38
2022-11-14T18:26:13.711Z,98301.06
2022-11-14T18:28:40.544Z,98301.06
2022-11-14T18:31:10.590Z,98298.47
2022-11-14T18:33:38.722Z,98309.78
2022-11-14T18:36:09.034Z,98306.16
2022-11-14T18:38:35.823Z,98303.56
2022-11-14T18:41:06.954Z,98304.47
2022-11-14T18:43:34.172Z,98297.63
2022-11-14T18:46:04.673Z,98299.31
2022-11-14T18:48:31.450Z,98307.94
2022-11-14T18:51:06.884Z,98297.47
2022-11-14T18:53:35.166Z,98300.19
2022-11-14T18:56:07.081Z,98301.94
2022-11-14T18:58:34.080Z,98299.31
2022-11-14T19:01:12.356Z,98296.63
2022-11-14T19:03:39.224Z,98300.06
2022-11-14T19:06:07.629Z,98304.38
2022-11-14T19:08:34.966Z,98300.75
2022-11-14T19:11:03.081Z,98303.28
2022-11-14T19:13:30.080Z,98299.06
2022-11-14T19:16:06.914Z,98305.13
2022-11-14T19:18:33.485Z,98303.56
2022-11-14T19:21:02.083Z,98298.22
2022-11-14T19:23:30.482Z,98295.69
2022-11-14T19:26:01.308Z,98300.06
2022-11-14T19:28:31.597Z,98305.31
2022-11-14T19:31:02.403Z,98304.47
2022-11-14T19:33:29.392Z,98301.59
2022-11-14T19:35:56.461Z,98305.13
2022-11-14T19:38:23.113Z,98311.13
2022-11-14T19:40:51.151Z,98309.38
2022-11-14T19:43:18.862Z,98303.97
2022-11-14T19:45:45.603Z,98310.97
2022-11-14T19:48:12.163Z,98303.97
2022-11-14T19:50:38.711Z,98299.72
2022-11-14T19:53:05.567Z,98294.59
2022-11-14T19:55:32.296Z,98299.66
2022-11-14T19:58:00.160Z,98301.34
2022-11-14T20:00:29.339Z,98300.59
2022-11-14T20:02:56.000Z,98300.50
2022-11-14T20:05:22.637Z,98299.41
2022-11-14T20:07:49.205Z,98312.50
2022-11-14T20:10:15.797Z,98310.13
2022-11-14T20:12:42.837Z,98307.50
2022-11-14T20:15:10.033Z,98304.81
2022-11-14T20:17:36.889Z,98312.06
2022-11-14T20:20:03.716Z,98314.59
2022-11-14T20:22:30.335Z,98320.75
2022-11-14T20:24:56.913Z,98313.59
2022-11-14T20:27:23.596Z,98325.59
2022-11-14T20:29:50.174Z,98328.19
2022-11-14T20:32:16.727Z,98324.91
2022-11-14T20:34:43.402Z,98324.81
2022-11-14T20:37:11.811Z,98331.66
2022-11-14T20:39:38.727Z,98336.75
2022-11-14T20:42:05.390Z,98330.56
2022-11-14T20:44:31.995Z,98329.53
2022-11-14T20:46:58.562Z,98318.91
2022-11-14T20:49:25.181Z,98319.81
2022-11-14T20:51:51.759Z,98319.59
2022-11-14T20:54:18.333Z,98310.03
2022-11-14T20:56:44.938Z,98311.84
2022-11-14T20:59:11.627Z,98321.03
2022-11-14T21:01:43.511Z,98318.22
2022-11-14T21:04:10.731Z,98318.16
2022-11-14T21:06:37.432Z,98322.47
2022-11-14T21:09:04.003Z,98321.41
2022-11-14T21:11:30.645Z,98325.41
2022-11-14T21:13:58.681Z,98318.81
2022-11-14T21:16:31.728Z,98330.47
2022-11-14T21:18:59.319Z,98325.03
2022-11-14T21:21:33.183Z,98324.75
2022-11-14T21:23:59.763Z,98321.63
2022-11-14T21:26:30.808Z,98326.41
2022-11-14T21:29:00.165Z,98330.03
2022-11-14T21:31:33.523Z,98322.53
2022-11-14T21:34:02.570Z,98320.78
2022-11-14T21:36:45.850Z,98323.13
2022-11-14T21:39:15.290Z,98323.69
2022-11-14T21:41:43.225Z,98330.91
2022-11-14T21:44:13.157Z,98319.56
2022-11-14T21:46:40.753Z,98329.22
2022-11-14T21:49:07.336Z,98324.66
2022-11-14T21:51:33.909Z,98322.03
2022-11-14T21:54:02.825Z,98328.13
2022-11-14T21:56:32.215Z,98330.66
2022-11-14T21:59:13.391Z,98325.28
2022-11-14T22:02:00.664Z,98315.66
2022-11-14T22:04:28.461Z,98310.22
2022-11-14T22:06:55.407Z,98316.16
2022-11-14T22:09:22.309Z,98321.19
2022-11-14T22:11:48.962Z,98317.72
2022-11-14T22:14:15.541Z,98304.34
2022-11-14T22:16:42.144Z,98314.06
2022-11-14T22:19:08.965Z,98312.59
2022-11-14T22:21:35.565Z,98311.84
2022-11-14T22:24:02.150Z,98304.53
2022-11-14T22:26:28.931Z,98302.94
2022-11-14T22:28:55.472Z,98302.84
2022-11-14T22:31:23.853Z,98303.59
2022-11-14T22:33:52.503Z,98296.09
2022-11-14T22:36:23.950Z,98302.19
2022-11-14T22:38:52.662Z,98295.91
2022-11-14T22:41:31.830Z,98298.34
2022-11-14T22:43:59.265Z,98293.66
2022-11-14T22:46:27.222Z,98298.91
2022-11-14T22:48:54.800Z,98296.94
2022-11-14T22:51:23.639Z,98299.28
2022-11-14T22:53:55.407Z,98303.13
2022-11-14T22:56:24.349Z,98293.44
2022-11-14T22:58:51.075Z,98295.72
2022-11-14T23:01:25.085Z,98298.00
2022-11-14T23:04:03.142Z,98296.13
2022-11-14T23:06:31.699Z,98286.31
2022-11-14T23:08:58.895Z,98294.13
2022-11-14T23:11:28.196Z,98282.56
2022-11-14T23:13:56.814Z,98273.78
2022-11-14T23:16:26.743Z,98275.06
2022-11-14T23:18:59.026Z,98281.78
2022-11-14T23:21:28.798Z,98271.03
2022-11-14T23:23:57.070Z,98272.50
2022-11-14T23:26:24.757Z,98275.78
2022-11-14T23:28:51.578Z,98267.09
2022-11-14T23:31:19.113Z,98270.53
2022-11-14T23:33:47.250Z,98266.47
2022-11-14T23:36:14.536Z,98265.75
2022-11-14T23:38:42.061Z,98265.66
2022-11-14T23:41:16.965Z,98250.81
2022-11-14T23:43:43.561Z,98256.34
2022-11-14T23:46:10.098Z,98258.03
2022-11-14T23:48:36.712Z,98249.13
2022-11-14T23:51:03.504Z,98250.50
2022-11-14T23:53:30.809Z,98253.94
2022-11-14T23:55:59.618Z,98246.91
2022-11-14T23:58:27.450Z,98245.94
